Stations météo

réclame
Mon MeteoGroup
Epinal, France (7173): Température de l'air & dewpoint: 18.01.2018 10:00:00 - 24.01.2018 10:00:00 (CET)Epinal, France (7173): Vitesse du vent & gusts: 18.01.2018 10:00:00 - 24.01.2018 10:00:00 (CET)Epinal, France (7173): Direction du vent: 18.01.2018 10:00:00 - 24.01.2018 10:00:00 (CET)Epinal, France (7173): Ensoleillement: 18.01.2018 10:00:00 - 24.01.2018 10:00:00 (CET)Epinal, France (7173): Quantités de précipitations: 18.01.2018 10:00:00 - 24.01.2018 10:00:00 (CET)
Date & Time tt [°C] td [°C] ff [km/h] ff [knt] fx [km/h] fx [knt] dd sd [min] rr [mm]
24.01.2018 10:00:00 9,0 6,8 18 10 28 15 S 0 0,0
24.01.2018 09:00:00 8,3 6,6 13 7 24 13 S 0 0,0
24.01.2018 08:00:00 8,0 6,6 13 7 28 15 S 0 0,0
24.01.2018 07:00:00 7,7 6,5 13 7 35 19 S 0 -
24.01.2018 06:00:00 7,8 6,4 15 8 29 16 S 0 0,0
24.01.2018 05:00:00 7,7 6,3 16 9 35 19 S 0 0,0
24.01.2018 04:00:00 7,7 6,5 18 10 31 17 S 0 0,0
24.01.2018 03:00:00 7,7 6,3 16 9 26 14 S 0 0,0
24.01.2018 02:00:00 7,2 5,7 15 8 31 17 S 0 0,0
24.01.2018 01:00:00 7,1 5,6 15 8 35 19 S 0 -
24.01.2018 00:00:00 7,3 5,1 22 12 44 24 S 0 0,0
23.01.2018 23:00:00 7,7 4,3 13 7 34 18 S 0 0,0
23.01.2018 22:00:00 7,8 4,4 21 11 35 19 S 0 0,0
23.01.2018 21:00:00 7,9 3,7 15 8 31 17 S 0 0,0
23.01.2018 20:00:00 7,6 3,6 15 8 26 14 S 0 0,0
23.01.2018 19:00:00 6,7 3,7 11 6 18 10 S 0 -
23.01.2018 18:00:00 6,7 3,7 9 5 22 12 S 0 0,0
23.01.2018 17:00:00 7,6 4,0 15 8 24 13 S 6 0,0
23.01.2018 16:00:00 8,2 3,8 15 8 28 15 S 30 0,0
23.01.2018 15:00:00 8,1 3,9 21 11 29 16 S 6 0,0
23.01.2018 14:00:00 7,9 4,7 15 8 24 13 S 0 0,0
23.01.2018 13:00:00 7,2 4,8 11 6 22 12 S 0 -
23.01.2018 12:00:00 6,8 4,8 11 6 18 10 S 0 0,0
23.01.2018 11:00:00 6,4 4,7 11 6 16 9 S 0 0,0
23.01.2018 10:00:00 6,1 4,7 8 4 15 8 SSW 0 0,0
23.01.2018 09:00:00 5,7 4,7 8 4 13 7 S 0 0,0
23.01.2018 08:00:00 5,5 4,5 8 4 9 5 S 0 0,0
23.01.2018 07:00:00 5,3 4,4 5 3 11 6 SSW 0 -
23.01.2018 06:00:00 5,5 4,5 8 4 13 7 S 0 0,0
23.01.2018 05:00:00 5,4 4,5 8 4 11 6 SSW 0 0,0
23.01.2018 04:00:00 5,3 4,6 8 4 9 5 S 0 0,0
23.01.2018 03:00:00 5,7 4,7 9 5 15 8 SSW 0 0,0
23.01.2018 02:00:00 6,0 5,1 8 4 11 6 SSW 0 0,0
23.01.2018 01:00:00 6,0 5,3 4 2 11 6 SSW 0 -
23.01.2018 00:00:00 5,8 5,1 8 4 9 5 SW 0 0,0
22.01.2018 23:00:00 6,1 4,9 11 6 41 22 NW 0 0,0
22.01.2018 22:00:00 8,0 6,3 8 4 15 8 WNW 0 0,0
22.01.2018 21:00:00 8,2 6,8 8 4 18 10 NW 0 0,0
22.01.2018 20:00:00 8,4 7,3 5 3 15 8 W 0 0,0
22.01.2018 19:00:00 8,3 7,4 8 4 11 6 W 0 -
22.01.2018 18:00:00 8,7 7,8 8 4 28 15 NW 0 0,2
22.01.2018 17:00:00 9,0 7,9 22 12 48 26 NW 0 0,6
22.01.2018 16:00:00 10,8 9,1 24 13 37 20 WSW 0 0,8
22.01.2018 15:00:00 10,5 9,6 15 8 35 19 SW 0 2,0
22.01.2018 14:00:00 10,3 9,5 16 9 41 22 SW 0 2,0
22.01.2018 13:00:00 10,2 9,3 16 9 31 17 SSW 0 -
22.01.2018 12:00:00 10,2 9,3 15 8 34 18 S 0 0,2
22.01.2018 11:00:00 9,8 9,0 18 10 28 15 S 0 0,4
22.01.2018 10:00:00 9,7 8,9 13 7 28 15 SSW 0 0,6
22.01.2018 09:00:00 9,2 8,6 16 9 26 14 SSW 0 0,2
22.01.2018 08:00:00 9,0 8,4 15 8 29 16 SSW 0 0,2
22.01.2018 07:00:00 8,9 8,3 16 9 26 14 SSW 0 -
22.01.2018 06:00:00 8,6 8,2 16 9 26 14 SSW 0 0,3
22.01.2018 05:00:00 8,2 7,6 16 9 26 14 SSW 0 0,6
22.01.2018 04:00:00 7,6 7,0 16 9 26 14 SSW 0 0,4
22.01.2018 03:00:00 7,0 6,3 15 8 34 18 SW 0 2,0
22.01.2018 02:00:00 6,2 5,5 18 10 35 19 SSW 0 1,0
22.01.2018 01:00:00 5,8 4,9 16 9 34 18 SSW 0 -
22.01.2018 00:00:00 5,1 4,1 15 8 37 20 S 0 0,2
21.01.2018 23:00:00 4,0 3,3 9 5 22 12 SSW 0 0,4
21.01.2018 22:00:00 2,7 1,7 9 5 18 10 SSE 0 0,2
21.01.2018 21:00:00 2,4 1,4 8 4 15 8 S 0 0,0
21.01.2018 20:00:00 2,4 1,4 8 4 16 9 SSE 0 0,0
21.01.2018 19:00:00 2,6 1,1 9 5 15 8 SSE 0 -
21.01.2018 18:00:00 3,1 1,5 8 4 18 10 S 0 0,4
21.01.2018 17:00:00 3,9 1,4 9 5 16 9 S 0 0,0
21.01.2018 16:00:00 4,5 1,0 5 3 13 7 SSW 0 0,0
21.01.2018 15:00:00 4,6 0,2 5 3 9 5 SW 0 0,0
21.01.2018 14:00:00 4,4 -1,0 4 2 13 7 SW 0 0,0
21.01.2018 13:00:00 4,1 -0,9 2 1 8 4 E 0 -
21.01.2018 12:00:00 4,3 0,1 0 0 9 5 N 0 0,0
21.01.2018 11:00:00 3,4 -0,1 8 4 13 7 N 0 0,0
21.01.2018 10:00:00 3,1 -0,5 4 2 18 10 NW 0 0,0
21.01.2018 09:00:00 2,3 -0,5 9 5 16 9 NW 12 0,0
21.01.2018 08:00:00 2,5 0,6 11 6 28 15 NNW 0 0,0
21.01.2018 07:00:00 3,5 1,7 13 7 31 17 NW 0 -
21.01.2018 06:00:00 3,9 2,4 15 8 26 14 NNW 0 0,0
21.01.2018 05:00:00 4,6 2,6 16 9 26 14 NW 0 0,0
21.01.2018 04:00:00 4,8 2,7 13 7 24 13 WNW 0 0,0
21.01.2018 03:00:00 5,1 2,6 11 6 26 14 WNW 0 0,0
21.01.2018 02:00:00 5,3 2,8 15 8 31 17 WNW 0 0,0
21.01.2018 01:00:00 6,1 3,9 16 9 29 16 NW 0 -
21.01.2018 00:00:00 7,1 5,4 16 9 34 18 WNW 0 0,0
20.01.2018 23:00:00 7,2 6,6 13 7 22 12 WSW 0 0,0
20.01.2018 22:00:00 6,3 5,9 5 3 13 7 SW 0 0,2
20.01.2018 21:00:00 6,1 5,5 8 4 21 11 WSW 0 0,0
20.01.2018 20:00:00 5,7 5,0 11 6 34 18 SSW 0 0,2
20.01.2018 19:00:00 5,6 4,9 22 12 46 25 SW 0 -
20.01.2018 18:00:00 4,3 3,3 28 15 57 31 SSW 0 0,0
20.01.2018 17:00:00 3,7 2,7 26 14 54 29 SSW 0 0,4
20.01.2018 16:00:00 3,5 2,2 31 17 54 29 SSW 0 0,2
20.01.2018 15:00:00 3,6 2,3 24 13 48 26 S 0 0,0
20.01.2018 14:00:00 3,3 2,1 16 9 35 19 S 0 0,4
20.01.2018 13:00:00 3,1 1,9 16 9 39 21 S 0 -
20.01.2018 12:00:00 3,1 1,6 22 12 50 27 S 0 0,6
20.01.2018 11:00:00 3,2 1,7 21 11 39 21 S 0 0,6
20.01.2018 10:00:00 3,0 1,8 18 10 34 18 SSW 0 0,2
20.01.2018 09:00:00 2,8 1,5 18 10 35 19 S 0 0,0
20.01.2018 08:00:00 2,8 1,5 22 12 39 21 SSW 0 0,0
20.01.2018 07:00:00 2,6 1,4 18 10 29 16 SSW 0 -
20.01.2018 06:00:00 2,3 1,3 16 9 29 16 SSW 0 0,0
20.01.2018 05:00:00 2,4 1,1 22 12 35 19 SSW 0 0,0
20.01.2018 04:00:00 2,2 1,0 21 11 34 18 SSW 0 0,2
20.01.2018 03:00:00 2,0 0,8 18 10 31 17 SSW 0 0,2
20.01.2018 02:00:00 1,7 0,7 15 8 24 13 S 0 0,0
20.01.2018 01:00:00 1,9 0,9 15 8 24 13 SSW 0 -
20.01.2018 00:00:00 1,5 0,6 16 9 24 13 SSW 0 0,4
19.01.2018 23:00:00 1,7 0,1 11 6 18 10 SW 0 0,0
19.01.2018 22:00:00 2,4 0,9 13 7 24 13 WSW 0 0,0
19.01.2018 21:00:00 2,7 1,4 13 7 29 16 WSW 0 0,0
19.01.2018 20:00:00 2,7 1,5 9 5 26 14 SW 0 0,0
19.01.2018 19:00:00 2,7 1,7 11 6 26 14 SW 0 -
19.01.2018 18:00:00 2,8 1,6 13 7 31 17 SW 0 1,0
19.01.2018 17:00:00 3,9 2,3 16 9 35 19 WSW 0 0,6
19.01.2018 16:00:00 4,0 2,0 18 10 37 20 SW 0 0,2
19.01.2018 15:00:00 4,6 2,8 18 10 35 19 SW 12 0,6
19.01.2018 14:00:00 5,4 2,6 21 11 37 20 SW 12 0,0
19.01.2018 13:00:00 5,2 2,2 22 12 37 20 SSW 6 -
19.01.2018 12:00:00 4,2 2,1 16 9 28 15 SSW 0 0,0
19.01.2018 11:00:00 3,9 1,6 15 8 28 15 SSW 12 0,0
19.01.2018 10:00:00 3,6 1,6 15 8 28 15 SW 12 0,0
19.01.2018 09:00:00 2,8 1,3 9 5 22 12 SSW 0 0,0
19.01.2018 08:00:00 2,7 1,5 11 6 21 11 S 0 0,0
19.01.2018 07:00:00 2,0 0,8 9 5 34 18 S 0 -
19.01.2018 06:00:00 3,4 0,1 22 12 39 21 WSW 0 0,0
19.01.2018 05:00:00 3,8 1,5 15 8 24 13 WSW 0 0,0
19.01.2018 04:00:00 4,1 2,3 13 7 26 14 WSW 0 0,0
19.01.2018 03:00:00 4,2 2,5 16 9 46 25 SW 0 0,4
19.01.2018 02:00:00 6,5 3,5 22 12 37 20 SW 0 0,0
19.01.2018 01:00:00 7,1 4,1 22 12 35 19 WSW 0 -
19.01.2018 00:00:00 6,9 4,9 15 8 29 16 SW 0 0,0
18.01.2018 23:00:00 6,8 4,8 21 11 34 18 SW 0 0,0
18.01.2018 22:00:00 6,6 6,0 8 4 29 16 SW 0 2,0
18.01.2018 21:00:00 6,5 5,6 8 4 24 13 SW 0 0,0
18.01.2018 20:00:00 6,5 5,4 11 6 26 14 S 0 0,2
18.01.2018 19:00:00 6,7 5,8 11 6 35 19 W 0 -
18.01.2018 18:00:00 6,7 5,8 16 9 39 21 SSW 0 4,0
18.01.2018 17:00:00 6,0 4,5 24 13 70 38 WNW 0 5,0
18.01.2018 16:00:00 7,1 6,0 34 18 70 38 SSW 0 0,2
18.01.2018 15:00:00 6,8 5,7 29 16 61 33 SSW 0 0,4
18.01.2018 14:00:00 6,8 5,4 39 21 70 38 SSW 24 0,2
18.01.2018 13:00:00 6,4 5,3 35 19 67 36 SSW 0 -
18.01.2018 12:00:00 5,9 4,7 35 19 65 35 SSW 0 0,2
18.01.2018 11:00:00 5,4 4,2 39 21 65 35 SSW 0 0,0
18.01.2018 10:00:00 4,9 3,6 35 19 68 37 SSW 0 0,0

tt = Température de l'air
td = dewpoint
ff = Vitesse du vent
fx = gusts
dd = Direction du vent
sd = Ensoleillement
rr = Quantités de précipitations

stations d'obs. à proximité